www.bettendroffer.lu
Wetterdaten: Woche 07.03.11 - 13.03.11 (KW10)
Datum Zeit Temp. 1 ext. Temp. 3 Feuchte 1 Feuchte 3 Luftdruck Regen Wind Richtung Taupunkt Windchill
07.03.2011 00:00 -1,6 C -3,8 C 95 % 50 % 1023 hPa 0,0 l/m 0,0 km/h (0 Bft) N -2,3 C -1,6 C
07.03.2011 01:00 -2,8 C -4,6 C 95 % 51 % 1023 hPa 0,0 l/m 0,0 km/h (0 Bft) N -3,5 C -2,8 C
07.03.2011 02:00 -4,1 C -4,9 C 95 % 51 % 1023 hPa 0,0 l/m 0,0 km/h (0 Bft) N -4,8 C -4,1 C
07.03.2011 03:00 -4,3 C -4,8 C 95 % 52 % 1023 hPa 0,0 l/m 0,0 km/h (0 Bft) N -5,0 C -4,3 C
07.03.2011 04:00 -4,5 C -4,7 C 95 % 52 % 1023 hPa 0,0 l/m 0,0 km/h (0 Bft) N -5,2 C -4,5 C
07.03.2011 05:00 -4,5 C -5,1 C 95 % 51 % 1023 hPa 0,0 l/m 0,0 km/h (0 Bft) N -5,2 C -4,5 C
07.03.2011 06:00 -3,5 C -4,9 C 95 % 48 % 1023 hPa 0,0 l/m 0,0 km/h (0 Bft) N -4,2 C -3,5 C
07.03.2011 07:00 -4,7 C -5,6 C 95 % 47 % 1023 hPa 0,0 l/m 0,0 km/h (0 Bft) N -5,3 C -4,7 C
07.03.2011 08:00 -4,9 C -4,9 C 95 % 47 % 1024 hPa 0,0 l/m 0,0 km/h (0 Bft) N -5,6 C -4,9 C
07.03.2011 09:00 -2,5 C 7,1 C 95 % 29 % 1024 hPa 0,0 l/m 0,0 km/h (0 Bft) N -3,2 C -2,5 C
07.03.2011 10:00 0,9 C 11,9 C 95 % 20 % 1024 hPa 0,0 l/m 0,0 km/h (0 Bft) N 0,2 C 0,9 C
07.03.2011 11:00 3,1 C 14,6 C 95 % 20 % 1024 hPa 0,0 l/m 0,0 km/h (0 Bft) N 2,4 C 3,1 C
07.03.2011 12:00 6,0 C 16,5 C 95 % 20 % 1023 hPa 0,0 l/m 0,0 km/h (0 Bft) N 5,3 C 6,0 C
07.03.2011 13:00 16,4 C 16,6 C 20 % 20 % 1023 hPa 0,0 l/m 0,0 km/h (0 Bft) N -6,6 C 16,4 C
07.03.2011 14:00 17,5 C 15,8 C 20 % 20 % 1023 hPa 0,0 l/m 0,0 km/h (0 Bft) N -5,7 C 17,5 C
07.03.2011 15:00 15,1 C 14,5 C 20 % 20 % 1022 hPa 0,0 l/m 0,0 km/h (0 Bft) N -7,7 C 15,1 C
07.03.2011 16:00 14,9 C 9,9 C 20 % 20 % 1022 hPa 0,0 l/m 0,0 km/h (0 Bft) N -7,9 C 14,9 C
07.03.2011 17:00 10,0 C 8,1 C 58 % 20 % 1021 hPa 0,0 l/m 0,0 km/h (0 Bft) N -1,3 C 10,0 C
07.03.2011 18:00 7,6 C 5,8 C 95 % 20 % 1021 hPa 0,0 l/m 0,0 km/h (0 Bft) N 6,9 C 7,6 C
07.03.2011 19:00 6,6 C 1,4 C 95 % 20 % 1022 hPa 0,0 l/m 0,0 km/h (0 Bft) N 5,9 C 6,6 C
07.03.2011 20:00 6,6 C -0,9 C 95 % 20 % 1022 hPa 0,0 l/m 0,0 km/h (0 Bft) N 5,9 C 6,6 C
07.03.2011 21:00 2,5 C -2,4 C 95 % 23 % 1022 hPa 0,0 l/m 0,0 km/h (0 Bft) N 1,8 C 2,5 C
07.03.2011 22:00 -1,6 C -2,6 C 95 % 24 % 1021 hPa 0,0 l/m 0,0 km/h (0 Bft) N -2,3 C -1,6 C
07.03.2011 23:00 -1,6 C -3,1 C 95 % 25 % 1021 hPa 0,0 l/m 0,0 km/h (0 Bft) N -2,3 C -1,6 C
08.03.2011 00:00 -1,6 C -3,7 C 95 % 27 % 1021 hPa 0,0 l/m 0,0 km/h (0 Bft) N -2,3 C -1,6 C
08.03.2011 01:00 -1,6 C -3,8 C 95 % 24 % 1021 hPa 0,0 l/m 0,0 km/h (0 Bft) N -2,3 C -1,6 C
08.03.2011 02:00 -3,0 C -4,8 C 95 % 32 % 1021 hPa 0,0 l/m 0,0 km/h (0 Bft) N -3,6 C -3,0 C
08.03.2011 03:00 -4,6 C -5,5 C 95 % 36 % 1020 hPa 0,0 l/m 0,0 km/h (0 Bft) N -5,3 C -4,6 C
08.03.2011 04:00 -5,4 C -6,4 C 95 % 38 % 1020 hPa 0,0 l/m 0,0 km/h (0 Bft) N -6,0 C -5,4 C
08.03.2011 05:00 -6,2 C -7,1 C 95 % 40 % 1020 hPa 0,0 l/m 0,0 km/h (0 Bft) N -6,8 C -6,2 C
08.03.2011 06:00 -6,8 C -7,6 C 95 % 42 % 1020 hPa 0,0 l/m 0,0 km/h (0 Bft) N -7,5 C -6,8 C
08.03.2011 07:00 -6,8 C -7,8 C 95 % 45 % 1020 hPa 0,0 l/m 0,0 km/h (0 Bft) N -7,5 C -6,8 C
08.03.2011 08:00 -6,8 C -6,3 C 95 % 48 % 1020 hPa 0,0 l/m 0,0 km/h (0 Bft) N -7,5 C -6,8 C
08.03.2011 09:00 -6,8 C 6,2 C 95 % 30 % 1020 hPa 0,0 l/m 0,0 km/h (0 Bft) N -7,5 C -6,8 C
08.03.2011 10:00 -1,5 C 14,5 C 95 % 20 % 1020 hPa 0,0 l/m 0,0 km/h (0 Bft) N -2,1 C -1,5 C
08.03.2011 11:00 -0,5 C 14,6 C 95 % 20 % 1019 hPa 0,0 l/m 0,0 km/h (0 Bft) N -1,2 C -0,5 C
08.03.2011 12:00 7,0 C 19,7 C 95 % 20 % 1019 hPa 0,0 l/m 0,0 km/h (0 Bft) N 6,3 C 7,0 C
08.03.2011 13:00 17,5 C 20,9 C 20 % 20 % 1018 hPa 0,0 l/m 0,0 km/h (0 Bft) N -5,7 C 17,5 C
08.03.2011 14:00 18,1 C 22,2 C 20 % 20 % 1017 hPa 0,0 l/m 0,0 km/h (0 Bft) N -5,2 C 18,1 C
08.03.2011 15:00 17,3 C 19,0 C 20 % 20 % 1017 hPa 0,0 l/m 0,0 km/h (0 Bft) N -5,9 C 17,3 C
08.03.2011 16:00 16,1 C 14,4 C 20 % 20 % 1016 hPa 0,0 l/m 0,0 km/h (0 Bft) N -6,8 C 16,1 C
08.03.2011 17:00 13,6 C 12,9 C 20 % 20 % 1015 hPa 0,0 l/m 0,0 km/h (0 Bft) N -8,9 C 13,6 C
08.03.2011 18:00 11,5 C 10,9 C 20 % 22 % 1015 hPa 0,0 l/m 0,0 km/h (0 Bft) N -10,7 C 11,5 C
08.03.2011 19:00 10,3 C 8,1 C 20 % 30 % 1016 hPa 0,0 l/m 0,0 km/h (0 Bft) N -11,6 C 10,3 C
08.03.2011 20:00 7,8 C 5,1 C 58 % 36 % 1016 hPa 0,0 l/m 0,0 km/h (0 Bft) N -3,5 C 7,8 C
08.03.2011 21:00 5,3 C 3,0 C 95 % 44 % 1016 hPa 0,0 l/m 0,0 km/h (0 Bft) N 4,6 C 5,3 C
08.03.2011 22:00 5,3 C 1,2 C 95 % 50 % 1015 hPa 0,0 l/m 0,0 km/h (0 Bft) N 4,6 C 5,3 C
08.03.2011 23:00 5,3 C 0,0 C 95 % 55 % 1015 hPa 0,0 l/m 0,0 km/h (0 Bft) N 4,6 C 5,3 C
09.03.2011 00:00 -0,5 C -1,1 C 39 % 58 % 1015 hPa 0,0 l/m 0,0 km/h (0 Bft) N -12,7 C -0,5 C
09.03.2011 01:00 -1,1 C -1,8 C 41 % 60 % 1015 hPa 0,0 l/m 0,0 km/h (0 Bft) N -12,8 C -1,1 C
09.03.2011 02:00 -1,5 C -2,0 C 44 % 62 % 1014 hPa 0,0 l/m 0,0 km/h (0 Bft) N -12,2 C -1,5 C
09.03.2011 03:00 -1,2 C -1,6 C 48 % 65 % 1014 hPa 0,0 l/m 0,0 km/h (0 Bft) N -10,8 C -1,2 C
09.03.2011 04:00 -1,6 C -2,2 C 47 % 65 % 1013 hPa 0,0 l/m 0,0 km/h (0 Bft) N -11,4 C -1,6 C
09.03.2011 05:00 -1,8 C -2,3 C 52 % 66 % 1013 hPa 0,0 l/m 0,0 km/h (0 Bft) N -10,5 C -1,8 C
09.03.2011 06:00 -2,2 C -2,7 C 53 % 66 % 1013 hPa 0,0 l/m 0,0 km/h (0 Bft) N -10,5 C -2,2 C
09.03.2011 07:00 -2,2 C -2,6 C 54 % 68 % 1013 hPa 0,0 l/m 0,0 km/h (0 Bft) N -10,3 C -2,2 C
09.03.2011 08:00 -0,3 C 0,3 C 56 % 71 % 1013 hPa 0,0 l/m 0,0 km/h (0 Bft) N -8,0 C -0,3 C
09.03.2011 09:00 5,1 C 7,2 C 41 % 48 % 1013 hPa 0,0 l/m 0,0 km/h (0 Bft) N -7,7 C 5,1 C
09.03.2011 10:00 8,2 C 8,6 C 20 % 36 % 1013 hPa 0,0 l/m 0,0 km/h (0 Bft) N -13,4 C 8,2 C
09.03.2011 11:00 9,6 C 10,1 C 20 % 35 % 1012 hPa 0,0 l/m 0,0 km/h (0 Bft) N -12,2 C 9,6 C
09.03.2011 12:00 10,4 C 11,0 C 20 % 34 % 1013 hPa 0,0 l/m 0,0 km/h (0 Bft) N -11,5 C 10,4 C
09.03.2011 13:00 9,1 C 9,3 C 21 % 40 % 1012 hPa 0,0 l/m 0,0 km/h (0 Bft) N -12,3 C 9,1 C
09.03.2011 14:00 8,8 C 8,9 C 27 % 42 % 1012 hPa 0,0 l/m 0,0 km/h (0 Bft) N -9,1 C 8,8 C
09.03.2011 15:00 10,8 C 11,0 C 20 % 35 % 1011 hPa 0,0 l/m 0,0 km/h (0 Bft) N -11,3 C 10,8 C
09.03.2011 16:00 10,5 C 10,8 C 20 % 33 % 1011 hPa 0,0 l/m 0,0 km/h (0 Bft) N -11,5 C 10,5 C
09.03.2011 17:00 11,0 C 10,7 C 20 % 30 % 1011 hPa 0,0 l/m 0,0 km/h (0 Bft) N -11,1 C 11,0 C
09.03.2011 18:00 9,5 C 9,3 C 20 % 33 % 1011 hPa 0,0 l/m 0,0 km/h (0 Bft) N -12,3 C 9,5 C
09.03.2011 19:00 8,8 C 8,5 C 23 % 41 % 1012 hPa 0,0 l/m 0,0 km/h (0 Bft) N -11,5 C 8,8 C
09.03.2011 20:00 7,8 C 7,6 C 29 % 46 % 1012 hPa 0,0 l/m 0,0 km/h (0 Bft) N -9,1 C 7,8 C
09.03.2011 21:00 8,0 C 7,5 C 27 % 46 % 1012 hPa 0,0 l/m 0,0 km/h (0 Bft) N -10,1 C 8,0 C
09.03.2011 22:00 7,5 C 7,1 C 29 % 46 % 1012 hPa 0,0 l/m 0,0 km/h (0 Bft) N -9,4 C 7,5 C
09.03.2011 23:00 7,2 C 6,9 C 32 % 49 % 1012 hPa 0,0 l/m 0,0 km/h (0 Bft) N -8,6 C 7,2 C
10.03.2011 00:00 7,1 C 6,7 C 33 % 50 % 1012 hPa 0,0 l/m 0,0 km/h (0 Bft) N -8,3 C 7,1 C
10.03.2011 01:00 6,8 C 6,3 C 32 % 49 % 1012 hPa 0,0 l/m 0,0 km/h (0 Bft) N -9,0 C 6,8 C
10.03.2011 02:00 5,7 C 5,0 C 37 % 54 % 1012 hPa 0,0 l/m 0,0 km/h (0 Bft) N -8,1 C 5,7 C
10.03.2011 03:00 4,5 C 3,9 C 41 % 59 % 1012 hPa 0,0 l/m 0,0 km/h (0 Bft) N -7,7 C 4,5 C
10.03.2011 04:00 3,8 C 3,2 C 44 % 60 % 1012 hPa 0,0 l/m 0,0 km/h (0 Bft) N -7,3 C 3,8 C
10.03.2011 05:00 3,3 C 3,1 C 47 % 62 % 1012 hPa 0,0 l/m 0,0 km/h (0 Bft) N -6,9 C 3,3 C
10.03.2011 06:00 4,1 C 3,9 C 48 % 63 % 1012 hPa 0,0 l/m 0,0 km/h (0 Bft) N -6,0 C 4,1 C
10.03.2011 07:00 4,7 C 4,4 C 42 % 58 % 1012 hPa 0,0 l/m 0,0 km/h (0 Bft) N -7,3 C 4,7 C
10.03.2011 08:00 5,1 C 5,1 C 39 % 54 % 1012 hPa 0,0 l/m 0,0 km/h (0 Bft) N -7,7 C 5,1 C
10.03.2011 09:00 5,6 C 5,7 C 36 % 50 % 1013 hPa 0,0 l/m 0,0 km/h (0 Bft) N -8,5 C 5,6 C
10.03.2011 10:00 6,8 C 8,5 C 29 % 41 % 1012 hPa 0,0 l/m 0,0 km/h (0 Bft) N -10,0 C 6,8 C
10.03.2011 11:00 7,1 C 8,9 C 20 % 35 % 1012 hPa 0,0 l/m 0,0 km/h (0 Bft) N -14,3 C 7,1 C
10.03.2011 12:00 6,5 C 6,7 C 24 % 41 % 1013 hPa 0,0 l/m 0,0 km/h (0 Bft) N -13,0 C 6,5 C
10.03.2011 13:00 6,3 C 6,4 C 28 % 44 % 1013 hPa 0,0 l/m 0,0 km/h (0 Bft) N -10,9 C 6,3 C
10.03.2011 14:00 8,1 C 8,6 C 23 % 37 % 1012 hPa 0,0 l/m 0,0 km/h (0 Bft) N -12,1 C 8,1 C
10.03.2011 15:00 8,3 C 8,6 C 20 % 36 % 1011 hPa 0,0 l/m 0,0 km/h (0 Bft) N -13,3 C 8,3 C
10.03.2011 16:00 8,8 C 8,9 C 20 % 36 % 1011 hPa 0,0 l/m 0,0 km/h (0 Bft) N -12,9 C 8,8 C
10.03.2011 17:00 8,6 C 8,6 C 20 % 36 % 1010 hPa 0,0 l/m 0,0 km/h (0 Bft) N -13,0 C 8,6 C
10.03.2011 18:00 8,4 C 8,3 C 20 % 37 % 1011 hPa 0,0 l/m 0,0 km/h (0 Bft) N -13,2 C 8,4 C
10.03.2011 19:00 8,1 C 7,9 C 20 % 40 % 1011 hPa 0,0 l/m 0,0 km/h (0 Bft) N -13,5 C 8,1 C
10.03.2011 20:00 8,0 C 7,9 C 20 % 41 % 1011 hPa 0,0 l/m 0,0 km/h (0 Bft) N -13,6 C 8,0 C
10.03.2011 21:00 8,2 C 8,0 C 20 % 41 % 1011 hPa 0,0 l/m 0,0 km/h (0 Bft) N -13,4 C 8,2 C
10.03.2011 22:00 8,1 C 8,1 C 21 % 41 % 1011 hPa 0,0 l/m 0,0 km/h (0 Bft) N -13,1 C 8,1 C
10.03.2011 23:00 8,3 C 8,1 C 21 % 41 % 1011 hPa 0,0 l/m 0,0 km/h (0 Bft) N -12,7 C 8,3 C
11.03.2011 00:00 8,2 C 8,1 C 23 % 42 % 1011 hPa 0,0 l/m 0,0 km/h (0 Bft) N -11,7 C 8,2 C
11.03.2011 01:00 8,1 C 7,9 C 25 % 43 % 1011 hPa 0,0 l/m 0,0 km/h (0 Bft) N -10,8 C 8,1 C
11.03.2011 02:00 7,9 C 7,8 C 24 % 42 % 1011 hPa 0,0 l/m 0,0 km/h (0 Bft) N -11,4 C 7,9 C
11.03.2011 03:00 8,1 C 7,9 C 25 % 43 % 1011 hPa 0,0 l/m 0,0 km/h (0 Bft) N -10,8 C 8,1 C
11.03.2011 04:00 7,8 C 7,9 C 29 % 45 % 1011 hPa 0,0 l/m 0,0 km/h (0 Bft) N -9,3 C 7,8 C
11.03.2011 05:00 7,4 C 7,4 C 34 % 49 % 1011 hPa 0,0 l/m 0,0 km/h (0 Bft) N -7,6 C 7,4 C
11.03.2011 06:00 6,8 C 6,8 C 42 % 57 % 1011 hPa 0,0 l/m 0,0 km/h (0 Bft) N -5,2 C 6,8 C
11.03.2011 07:00 7,1 C 6,9 C 40 % 57 % 1012 hPa 0,0 l/m 0,0 km/h (0 Bft) N -5,6 C 7,1 C
11.03.2011 08:00 7,3 C 7,1 C 40 % 55 % 1012 hPa 0,0 l/m 0,0 km/h (0 Bft) N -5,4 C 7,3 C
11.03.2011 09:00 7,7 C 7,7 C 39 % 54 % 1012 hPa 0,0 l/m 0,0 km/h (0 Bft) N -5,4 C 7,7 C
11.03.2011 10:00 8,9 C 9,0 C 32 % 46 % 1012 hPa 0,0 l/m 0,0 km/h (0 Bft) N -7,1 C 8,9 C
11.03.2011 11:00 9,8 C 10,1 C 24 % 39 % 1013 hPa 0,0 l/m 0,0 km/h (0 Bft) N -10,2 C 9,8 C
11.03.2011 12:00 10,3 C 10,6 C 20 % 34 % 1013 hPa 0,0 l/m 0,0 km/h (0 Bft) N -11,6 C 10,3 C
11.03.2011 13:00 10,4 C 10,4 C 20 % 33 % 1012 hPa 0,0 l/m 0,0 km/h (0 Bft) N -11,6 C 10,4 C
11.03.2011 14:00 10,4 C 10,4 C 20 % 28 % 1012 hPa 0,0 l/m 0,0 km/h (0 Bft) N -11,5 C 10,4 C
11.03.2011 15:00 12,0 C 11,9 C 20 % 25 % 1011 hPa 0,0 l/m 0,0 km/h (0 Bft) N -10,2 C 12,0 C
11.03.2011 16:00 11,5 C 11,6 C 20 % 25 % 1011 hPa 0,0 l/m 0,0 km/h (0 Bft) N -10,6 C 11,5 C
11.03.2011 17:00 10,8 C 10,5 C 20 % 30 % 1011 hPa 0,0 l/m 0,0 km/h (0 Bft) N -11,3 C 10,8 C
11.03.2011 18:00 10,0 C 9,7 C 20 % 32 % 1011 hPa 0,0 l/m 0,0 km/h (0 Bft) N -11,9 C 10,0 C
11.03.2011 19:00 9,1 C 8,9 C 20 % 36 % 1011 hPa 0,0 l/m 0,0 km/h (0 Bft) N -12,6 C 9,1 C
11.03.2011 20:00 8,4 C 8,1 C 20 % 41 % 1011 hPa 0,0 l/m 0,0 km/h (0 Bft) N -13,2 C 8,4 C
11.03.2011 21:00 7,8 C 7,4 C 26 % 44 % 1010 hPa 0,0 l/m 0,0 km/h (0 Bft) N -10,7 C 7,8 C
11.03.2011 22:00 6,2 C 5,8 C 29 % 47 % 1010 hPa 0,0 l/m 0,0 km/h (0 Bft) N -10,5 C 6,2 C
11.03.2011 23:00 4,7 C 4,5 C 35 % 53 % 1010 hPa 0,0 l/m 0,0 km/h (0 Bft) N -9,4 C 4,7 C
12.03.2011 00:00 3,3 C 2,8 C 40 % 58 % 1009 hPa 0,0 l/m 0,0 km/h (0 Bft) N -9,1 C 3,3 C
12.03.2011 01:00 1,9 C 1,3 C 41 % 61 % 1009 hPa 0,0 l/m 0,0 km/h (0 Bft) N -9,9 C 1,9 C
12.03.2011 02:00 1,1 C 0,4 C 45 % 63 % 1008 hPa 0,0 l/m 0,0 km/h (0 Bft) N -9,5 C 1,1 C
12.03.2011 03:00 0,0 C -0,6 C 47 % 64 % 1007 hPa 0,0 l/m 0,0 km/h (0 Bft) N -10,1 C 0,0 C
12.03.2011 04:00 -0,8 C -1,4 C 49 % 66 % 1007 hPa 0,0 l/m 0,0 km/h (0 Bft) N -10,2 C -0,8 C
12.03.2011 05:00 -1,2 C -2,0 C 51 % 67 % 1006 hPa 0,0 l/m 0,0 km/h (0 Bft) N -10,0 C -1,2 C
12.03.2011 06:00 -1,8 C -2,3 C 52 % 69 % 1005 hPa 0,0 l/m 0,0 km/h (0 Bft) N -10,4 C -1,8 C
12.03.2011 07:00 -1,5 C -1,9 C 55 % 71 % 1005 hPa 0,0 l/m 0,0 km/h (0 Bft) N -9,4 C -1,5 C
12.03.2011 08:00 -0,3 C -0,2 C 61 % 75 % 1004 hPa 0,0 l/m 0,0 km/h (0 Bft) N -6,8 C -0,3 C
12.03.2011 09:00 2,4 C 10,0 C 59 % 48 % 1004 hPa 0,0 l/m 0,0 km/h (0 Bft) N -4,8 C 2,4 C
12.03.2011 10:00 7,9 C 13,4 C 30 % 24 % 1003 hPa 0,0 l/m 0,0 km/h (0 Bft) N -9,3 C 7,9 C
12.03.2011 11:00 10,2 C 12,1 C 20 % 27 % 1003 hPa 0,0 l/m 0,0 km/h (0 Bft) N -11,7 C 10,2 C
12.03.2011 12:00 15,9 C 20,8 C 20 % 20 % 1002 hPa 0,0 l/m 0,0 km/h (0 Bft) N -7,0 C 15,9 C
12.03.2011 13:00 19,4 C 20,3 C 20 % 20 % 1001 hPa 0,0 l/m 0,0 km/h (0 Bft) N -4,1 C 19,4 C
12.03.2011 14:00 19,1 C 21,0 C 20 % 20 % 1000 hPa 0,0 l/m 0,0 km/h (0 Bft) N -4,4 C 19,1 C
12.03.2011 15:00 20,1 C 20,1 C 20 % 20 % 999 hPa 0,0 l/m 0,0 km/h (0 Bft) N -3,5 C 20,1 C
12.03.2011 16:00 16,4 C 16,4 C 20 % 20 % 999 hPa 0,0 l/m 0,0 km/h (0 Bft) N -6,6 C 16,4 C
12.03.2011 17:00 15,3 C 15,1 C 20 % 20 % 999 hPa 0,0 l/m 0,0 km/h (0 Bft) N -7,5 C 15,3 C
12.03.2011 18:00 13,5 C 13,3 C 20 % 21 % 999 hPa 0,0 l/m 0,0 km/h (0 Bft) N -9,0 C 13,5 C
12.03.2011 19:00 12,9 C 12,8 C 20 % 23 % 999 hPa 0,0 l/m 0,0 km/h (0 Bft) N -9,4 C 12,9 C
12.03.2011 20:00 11,8 C 11,5 C 20 % 28 % 1000 hPa 0,0 l/m 0,0 km/h (0 Bft) N -10,4 C 11,8 C
12.03.2011 21:00 10,6 C 10,5 C 20 % 32 % 1000 hPa 0,0 l/m 0,0 km/h (0 Bft) N -11,4 C 10,6 C
12.03.2011 22:00 10,1 C 10,0 C 20 % 36 % 1000 hPa 0,0 l/m 0,0 km/h (0 Bft) N -11,8 C 10,1 C
12.03.2011 23:00 10,0 C 9,8 C 20 % 39 % 1000 hPa 0,0 l/m 0,0 km/h (0 Bft) N -11,9 C 10,0 C
13.03.2011 00:00 9,9 C 9,7 C 26 % 42 % 1000 hPa 0,0 l/m 0,0 km/h (0 Bft) SO -9,0 C 9,9 C
13.03.2011 01:00 9,7 C 9,6 C 30 % 46 % 1000 hPa 0,0 l/m 0,6 km/h (0 Bft) N -7,3 C 9,7 C
13.03.2011 02:00 8,1 C 8,1 C 51 % 58 % 1000 hPa 0,0 l/m 0,0 km/h (0 Bft) N -1,7 C 8,1 C
13.03.2011 03:00 7,8 C 7,8 C 67 % 68 % 999 hPa 0,4 l/m 0,0 km/h (0 Bft) N 1,9 C 7,8 C
13.03.2011 04:00 7,6 C 7,7 C 71 % 70 % 999 hPa 0,0 l/m 0,0 km/h (0 Bft) N 2,5 C 7,6 C
13.03.2011 05:00 7,4 C 7,4 C 74 % 72 % 999 hPa 0,4 l/m 0,0 km/h (0 Bft) N 3,1 C 7,4 C
13.03.2011 06:00 7,5 C 7,6 C 69 % 71 % 999 hPa 0,0 l/m 0,0 km/h (0 Bft) N 2,2 C 7,5 C
13.03.2011 07:00 7,5 C 7,6 C 70 % 71 % 999 hPa 0,0 l/m 0,0 km/h (0 Bft) N 2,4 C 7,5 C
13.03.2011 08:00 8,1 C 8,2 C 60 % 68 % 999 hPa 0,0 l/m 0,0 km/h (0 Bft) N 0,8 C 8,1 C
13.03.2011 09:00 8,4 C 8,4 C 55 % 64 % 999 hPa 0,0 l/m 0,0 km/h (0 Bft) N -0,3 C 8,4 C
13.03.2011 10:00 8,4 C 8,6 C 65 % 67 % 999 hPa 0,4 l/m 0,0 km/h (0 Bft) N 2,1 C 8,4 C
13.03.2011 11:00 10,9 C 11,3 C 45 % 53 % 999 hPa 0,0 l/m 0,0 km/h (0 Bft) N -0,7 C 10,9 C
13.03.2011 12:00 12,7 C 13,4 C 28 % 39 % 999 hPa 0,0 l/m 0,0 km/h (0 Bft) N -5,7 C 12,7 C
13.03.2011 13:00 13,9 C 15,1 C 20 % 28 % 999 hPa 0,0 l/m 0,0 km/h (0 Bft) N -8,7 C 13,9 C
13.03.2011 14:00 13,5 C 13,8 C 23 % 35 % 999 hPa 0,0 l/m 0,0 km/h (0 Bft) N -7,6 C 13,5 C
13.03.2011 15:00 12,9 C 13,1 C 21 % 36 % 999 hPa 0,0 l/m 0,0 km/h (0 Bft) N -8,8 C 12,9 C
13.03.2011 16:00 12,1 C 12,3 C 27 % 38 % 999 hPa 0,0 l/m 0,0 km/h (0 Bft) N -6,5 C 12,1 C
13.03.2011 17:00 11,5 C 11,4 C 31 % 44 % 999 hPa 0,0 l/m 0,0 km/h (0 Bft) N -5,2 C 11,5 C
13.03.2011 18:00 11,0 C 11,0 C 33 % 46 % 1000 hPa 0,0 l/m 0,0 km/h (0 Bft) N -4,6 C 11,0 C
13.03.2011 19:00 10,4 C 10,4 C 36 % 49 % 1001 hPa 0,0 l/m 0,0 km/h (0 Bft) N -4,0 C 10,4 C
13.03.2011 20:00 10,0 C 9,7 C 38 % 51 % 1001 hPa 0,0 l/m 0,0 km/h (0 Bft) N -3,7 C 10,0 C
13.03.2011 21:00 9,6 C 9,3 C 42 % 55 % 1002 hPa 0,0 l/m 0,0 km/h (0 Bft) N -2,9 C 9,6 C
13.03.2011 22:00 9,7 C 9,4 C 41 % 55 % 1002 hPa 0,0 l/m 0,0 km/h (0 Bft) N -2,9 C 9,7 C
13.03.2011 23:00 9,4 C 9,2 C 42 % 55 % 1003 hPa 0,0 l/m 0,0 km/h (0 Bft) N -2,9 C 9,4 C
Min-Datum _ 08.03.11 08.03.11 07.03.11 07.03.11 12.03.11 - 07.03.11 - 10.03.11 08.03.11
_ Min-Zeit 06:07 07:07 13:07 09:37 15:37 - 00:07 - 11:37 06:07
Minimum _ -6,8 C -7,8 C 20 % 20 % 999 hPa - 0,0 km/h (0 Bft) - -14,6 C -6,8 C
Max-Datum _ 08.03.11 08.03.11 07.03.11 12.03.11 07.03.11 13.03.11 13.03.11 - 07.03.11 08.03.11
_ Max-Zeit 13:07 13:07 00:07 08:37 07:37 03:37 01:07 - 17:37 13:07
Maximum _ 20,9 C 23,5 C 95 % 76 % 1024 hPa 0,4 l/m 1,1 km/h
N (1 Bft)
- 8,9 C 20,9 C
Durchschnitt _ 6,4 C 6,7 C 46 % 42 % 1011 hPa #1,1 l/m 0,0 km/h (0 Bft) SO -7,0 C 6,4 C
©2001-2010 Bettendroffer Claude